createdAt,value
2018-09-02T00:00:52.225Z,0.00
2018-09-02T00:01:52.217Z,0.00
2018-09-02T00:02:52.207Z,0.00
2018-09-02T00:03:52.200Z,0.00
2018-09-02T00:04:52.193Z,0.00
2018-09-02T00:05:52.183Z,0.00
2018-09-02T00:06:52.178Z,0.00
2018-09-02T00:07:52.171Z,0.00
2018-09-02T00:08:52.167Z,0.00
2018-09-02T00:09:52.159Z,0.00
2018-09-02T00:10:52.149Z,0.00
2018-09-02T00:11:52.142Z,0.00
2018-09-02T00:12:52.134Z,0.00
2018-09-02T00:13:52.128Z,0.00
2018-09-02T00:14:52.119Z,0.00
2018-09-02T00:15:52.112Z,0.00
2018-09-02T00:16:52.107Z,0.00
2018-09-02T00:17:52.099Z,0.00
2018-09-02T00:18:52.094Z,0.00
2018-09-02T00:19:52.084Z,0.00
2018-09-02T00:20:52.082Z,0.00
2018-09-02T00:21:52.068Z,0.00
2018-09-02T00:22:52.062Z,0.00
2018-09-02T00:23:52.055Z,0.00
2018-09-02T00:24:52.049Z,0.00
2018-09-02T00:25:52.039Z,0.00
2018-09-02T00:26:52.033Z,0.00
2018-09-02T00:27:52.035Z,0.00
2018-09-02T00:28:52.025Z,0.00
2018-09-02T00:29:52.011Z,0.00
2018-09-02T00:30:52.003Z,0.00
2018-09-02T00:31:51.995Z,0.00
2018-09-02T00:32:51.998Z,0.00
2018-09-02T00:33:52.054Z,0.00
2018-09-02T00:34:51.973Z,0.00
2018-09-02T00:35:51.965Z,0.00
2018-09-02T00:36:51.959Z,0.00
2018-09-02T00:37:51.960Z,0.00
2018-09-02T00:38:51.951Z,0.00
2018-09-02T00:39:51.937Z,0.00
2018-09-02T00:40:51.934Z,0.00
2018-09-02T00:41:51.922Z,0.00
2018-09-02T00:42:51.914Z,0.00
2018-09-02T00:43:51.911Z,0.00
2018-09-02T00:44:51.899Z,0.00
2018-09-02T00:45:51.890Z,0.00
2018-09-02T00:46:51.886Z,0.00
2018-09-02T00:47:51.876Z,0.00
2018-09-02T00:48:51.874Z,0.00
2018-09-02T00:49:51.866Z,0.00
2018-09-02T00:50:51.854Z,0.00
2018-09-02T00:51:51.847Z,0.00
2018-09-02T00:52:51.842Z,0.00
2018-09-02T00:53:51.837Z,0.00
2018-09-02T00:54:51.825Z,0.00
2018-09-02T00:55:51.819Z,0.00
2018-09-02T00:56:51.815Z,0.00
2018-09-02T00:57:51.800Z,0.00
2018-09-02T00:58:51.795Z,0.00
2018-09-02T00:59:51.789Z,0.00
2018-09-02T01:00:51.787Z,0.00
2018-09-02T01:01:51.775Z,0.00
2018-09-02T01:02:51.766Z,0.00
2018-09-02T01:03:51.760Z,0.00
2018-09-02T01:04:51.751Z,0.00
2018-09-02T01:05:51.742Z,0.00
2018-09-02T01:06:51.740Z,0.00
2018-09-02T01:07:51.729Z,0.00
2018-09-02T01:08:51.723Z,0.00
2018-09-02T01:09:51.716Z,0.00
2018-09-02T01:10:51.710Z,0.00
2018-09-02T01:11:51.699Z,0.00
2018-09-02T01:12:51.697Z,0.00
2018-09-02T01:13:51.692Z,0.00
2018-09-02T01:14:51.678Z,0.00
2018-09-02T01:15:51.670Z,0.00
2018-09-02T01:16:51.661Z,0.00
2018-09-02T01:17:51.656Z,0.00
2018-09-02T01:18:51.648Z,0.00
2018-09-02T01:19:51.642Z,0.00
2018-09-02T01:20:51.635Z,0.00
2018-09-02T01:21:51.626Z,0.00
2018-09-02T01:22:51.620Z,0.00
2018-09-02T01:23:51.611Z,0.00
2018-09-02T01:24:51.604Z,0.00
2018-09-02T01:25:51.600Z,0.00
2018-09-02T01:26:51.602Z,0.00
2018-09-02T01:27:51.582Z,0.00
2018-09-02T01:28:51.574Z,0.00
2018-09-02T01:29:51.566Z,0.00
2018-09-02T01:30:51.565Z,0.00
2018-09-02T01:31:51.552Z,0.00
2018-09-02T01:32:51.545Z,0.00
2018-09-02T01:33:51.537Z,0.00
2018-09-02T01:34:51.530Z,0.00
2018-09-02T01:35:51.522Z,0.00
2018-09-02T01:36:51.514Z,0.00
2018-09-02T01:37:51.508Z,0.00
2018-09-02T01:38:51.506Z,0.00
2018-09-02T01:39:51.495Z,0.00
2018-09-02T01:40:51.484Z,0.00
2018-09-02T01:41:51.475Z,0.00
2018-09-02T01:42:51.477Z,0.00
2018-09-02T01:43:51.464Z,0.00
2018-09-02T01:44:51.454Z,0.00
2018-09-02T01:45:51.447Z,0.00
2018-09-02T01:46:51.440Z,0.00
2018-09-02T01:47:51.431Z,0.00
2018-09-02T01:48:51.425Z,0.00
2018-09-02T01:49:51.419Z,0.00
2018-09-02T01:50:51.412Z,0.00
2018-09-02T01:51:51.409Z,0.00
2018-09-02T01:52:51.395Z,0.00
2018-09-02T01:53:51.394Z,0.00
2018-09-02T01:54:51.378Z,0.00
2018-09-02T01:55:51.372Z,0.00
2018-09-02T01:56:51.368Z,0.00
2018-09-02T01:57:51.361Z,0.00
2018-09-02T01:58:51.352Z,0.00
2018-09-02T01:59:51.342Z,0.00
2018-09-02T02:00:51.339Z,0.00
2018-09-02T02:01:51.330Z,0.00
2018-09-02T02:02:51.320Z,0.00
2018-09-02T02:03:51.314Z,0.00
2018-09-02T02:04:51.310Z,0.00
2018-09-02T02:05:51.302Z,0.00
2018-09-02T02:06:51.292Z,0.00
2018-09-02T02:07:51.282Z,0.00
2018-09-02T02:08:51.277Z,0.00
2018-09-02T02:09:51.275Z,0.00
2018-09-02T02:10:51.264Z,0.00
2018-09-02T02:11:51.253Z,0.00
2018-09-02T02:12:51.246Z,0.00
2018-09-02T02:13:51.244Z,0.00
2018-09-02T02:14:51.234Z,0.00
2018-09-02T02:15:51.225Z,0.00
2018-09-02T02:16:51.216Z,0.00
2018-09-02T02:17:51.214Z,0.00
2018-09-02T02:18:51.202Z,0.00
2018-09-02T02:19:51.195Z,0.00
2018-09-02T02:20:51.187Z,0.00
2018-09-02T02:21:51.180Z,0.00
2018-09-02T02:22:51.164Z,0.00
2018-09-02T02:23:51.165Z,0.00
2018-09-02T02:24:51.155Z,0.00
2018-09-02T02:25:51.147Z,0.00
2018-09-02T02:26:51.147Z,0.00
2018-09-02T02:27:51.134Z,0.00
2018-09-02T02:28:51.126Z,0.00
2018-09-02T02:29:51.119Z,0.00
2018-09-02T02:30:51.110Z,0.00
2018-09-02T02:31:51.105Z,0.00
2018-09-02T02:32:51.103Z,0.00
2018-09-02T02:33:51.088Z,0.00
2018-09-02T02:34:51.080Z,0.00
2018-09-02T02:35:51.077Z,0.00
2018-09-02T02:36:51.066Z,0.00
2018-09-02T02:37:51.057Z,0.00
2018-09-02T02:38:51.050Z,0.00
2018-09-02T02:39:51.043Z,0.00
2018-09-02T02:40:51.067Z,0.00
2018-09-02T02:41:51.057Z,0.00
2018-09-02T02:42:51.052Z,0.00
2018-09-02T02:43:51.042Z,0.00
2018-09-02T02:44:51.007Z,0.00
2018-09-02T02:45:51.031Z,0.00
2018-09-02T02:46:51.011Z,0.00
2018-09-02T02:47:50.982Z,0.00
2018-09-02T02:48:50.984Z,0.00
2018-09-02T02:49:50.974Z,0.00
2018-09-02T02:50:50.961Z,0.00
2018-09-02T02:51:50.953Z,0.00
2018-09-02T02:52:50.945Z,0.00
2018-09-02T02:53:50.943Z,0.00
2018-09-02T02:54:50.929Z,0.00
2018-09-02T02:55:50.926Z,0.00
2018-09-02T02:56:50.914Z,0.00
2018-09-02T02:57:50.910Z,0.00
2018-09-02T02:58:50.907Z,0.00
2018-09-02T02:59:50.900Z,0.00
2018-09-02T03:00:50.885Z,0.00
2018-09-02T03:01:50.876Z,0.00
2018-09-02T03:02:50.870Z,0.00
2018-09-02T03:03:50.867Z,0.00
2018-09-02T03:04:50.856Z,0.00
2018-09-02T03:05:50.847Z,0.00
2018-09-02T03:06:50.842Z,0.00
2018-09-02T03:07:50.832Z,0.00
2018-09-02T03:08:50.826Z,0.00
2018-09-02T03:09:50.816Z,0.00
2018-09-02T03:10:50.927Z,0.00
2018-09-02T03:11:50.801Z,0.00
2018-09-02T03:12:50.799Z,0.00
2018-09-02T03:13:50.790Z,0.00
2018-09-02T03:14:50.780Z,0.00
2018-09-02T03:15:50.770Z,0.00
2018-09-02T03:16:50.768Z,0.00
2018-09-02T03:17:50.766Z,0.00
2018-09-02T03:18:50.752Z,0.00
2018-09-02T03:19:50.740Z,0.00
2018-09-02T03:20:50.735Z,0.00
2018-09-02T03:21:50.728Z,0.00
2018-09-02T03:22:50.719Z,0.00
2018-09-02T03:23:50.712Z,0.00
2018-09-02T03:24:50.704Z,0.00
2018-09-02T03:25:50.696Z,0.00
2018-09-02T03:26:50.689Z,0.00
2018-09-02T03:27:50.688Z,0.00
2018-09-02T03:28:50.676Z,0.00
2018-09-02T03:29:50.668Z,0.00
2018-09-02T03:30:50.658Z,0.00
2018-09-02T03:31:50.649Z,0.00
2018-09-02T03:32:50.642Z,0.00
2018-09-02T03:33:50.636Z,0.00
2018-09-02T03:34:50.629Z,0.00
2018-09-02T03:35:50.621Z,0.00
2018-09-02T03:36:50.619Z,0.00
2018-09-02T03:37:50.604Z,0.00
2018-09-02T03:38:50.597Z,0.00
2018-09-02T03:39:50.590Z,0.00
2018-09-02T03:40:50.582Z,0.00
2018-09-02T03:41:50.581Z,0.00
2018-09-02T03:42:50.567Z,0.00
2018-09-02T03:43:50.561Z,0.00
2018-09-02T03:44:50.554Z,0.00
2018-09-02T03:45:50.546Z,0.00
2018-09-02T03:46:50.541Z,0.00
2018-09-02T03:47:50.529Z,0.00
2018-09-02T03:48:50.521Z,0.00
2018-09-02T03:49:50.515Z,0.00
2018-09-02T03:50:50.507Z,0.00
2018-09-02T03:51:50.501Z,0.00
2018-09-02T03:52:50.497Z,0.00
2018-09-02T03:53:50.483Z,0.00
2018-09-02T03:54:50.480Z,0.00
2018-09-02T03:55:50.467Z,0.00
2018-09-02T03:56:50.461Z,0.00
2018-09-02T03:57:50.452Z,0.00
2018-09-02T03:58:50.447Z,0.00
2018-09-02T03:59:50.442Z,0.00
2018-09-02T04:00:50.430Z,0.00
2018-09-02T04:01:50.420Z,0.00
2018-09-02T04:02:50.415Z,0.00
2018-09-02T04:03:50.406Z,0.00
2018-09-02T04:04:50.400Z,0.00
2018-09-02T04:05:50.400Z,0.00
2018-09-02T04:06:50.391Z,0.00
2018-09-02T04:07:50.375Z,0.00
2018-09-02T04:08:50.373Z,0.00
2018-09-02T04:09:50.361Z,0.00
2018-09-02T04:10:50.350Z,0.00
2018-09-02T04:11:50.354Z,0.00
2018-09-02T04:12:50.339Z,0.00
2018-09-02T04:13:50.330Z,0.00
2018-09-02T04:14:50.324Z,0.00
2018-09-02T04:15:50.316Z,0.00
2018-09-02T04:16:50.309Z,0.00
2018-09-02T04:17:50.300Z,0.00
2018-09-02T04:18:50.294Z,0.00
2018-09-02T04:19:50.288Z,0.00
2018-09-02T04:20:50.282Z,0.00
2018-09-02T04:21:50.271Z,0.00
2018-09-02T04:22:50.264Z,0.00
2018-09-02T04:23:50.257Z,0.00
2018-09-02T04:24:50.248Z,0.00
2018-09-02T04:25:50.238Z,0.00
2018-09-02T04:26:50.238Z,0.00
2018-09-02T04:27:50.227Z,0.00
2018-09-02T04:28:50.217Z,4.00
2018-09-02T04:29:50.202Z,4.00
2018-09-02T04:30:50.204Z,4.00
2018-09-02T04:31:50.195Z,4.00
2018-09-02T04:32:50.189Z,4.00
2018-09-02T04:33:50.296Z,4.00
2018-09-02T04:34:50.172Z,4.00
2018-09-02T04:35:50.163Z,4.00
2018-09-02T04:36:50.157Z,8.00
2018-09-02T04:37:50.148Z,4.00
2018-09-02T04:38:50.140Z,8.00
2018-09-02T04:39:50.133Z,8.00
2018-09-02T04:40:50.128Z,8.00
2018-09-02T04:41:50.117Z,12.00
2018-09-02T04:42:50.109Z,12.00
2018-09-02T04:43:50.102Z,16.00
2018-09-02T04:44:50.097Z,12.00
2018-09-02T04:45:50.090Z,12.00
2018-09-02T04:46:50.079Z,12.00
2018-09-02T04:47:50.071Z,16.00
2018-09-02T04:48:50.065Z,16.00
2018-09-02T04:49:50.057Z,16.00
2018-09-02T04:50:50.049Z,16.00
2018-09-02T04:51:50.044Z,16.00
2018-09-02T04:52:50.034Z,16.00
2018-09-02T04:53:50.025Z,16.00
2018-09-02T04:54:50.018Z,16.00
2018-09-02T04:55:50.012Z,16.00
2018-09-02T04:56:50.003Z,20.00
2018-09-02T04:57:49.995Z,20.00
2018-09-02T04:58:49.996Z,24.00
2018-09-02T04:59:49.982Z,24.00
2018-09-02T05:00:49.972Z,28.00
2018-09-02T05:01:49.964Z,28.00
2018-09-02T05:02:49.957Z,32.00
2018-09-02T05:03:49.949Z,32.00
2018-09-02T05:04:49.953Z,36.00
2018-09-02T05:05:49.942Z,36.00
2018-09-02T05:06:49.927Z,36.00
2018-09-02T05:07:49.922Z,36.00
2018-09-02T05:08:49.909Z,32.00
2018-09-02T05:09:49.903Z,32.00
2018-09-02T05:10:49.898Z,32.00
2018-09-02T05:11:49.890Z,28.00
2018-09-02T05:12:49.884Z,28.00
2018-09-02T05:13:49.878Z,24.00
2018-09-02T05:14:49.865Z,24.00
2018-09-02T05:15:49.859Z,24.00
2018-09-02T05:16:49.851Z,20.00
2018-09-02T05:17:49.843Z,20.00
2018-09-02T05:18:49.833Z,24.00
2018-09-02T05:19:49.827Z,24.00
2018-09-02T05:20:49.822Z,24.00
2018-09-02T05:21:49.814Z,24.00
2018-09-02T05:22:49.806Z,24.00
2018-09-02T05:23:49.798Z,24.00
2018-09-02T05:24:49.792Z,24.00
2018-09-02T05:25:49.781Z,24.00
2018-09-02T05:26:49.774Z,24.00
2018-09-02T05:27:49.768Z,28.00
2018-09-02T05:28:49.763Z,28.00
2018-09-02T05:29:49.753Z,28.00
2018-09-02T05:30:49.739Z,32.00
2018-09-02T05:31:49.736Z,40.00
2018-09-02T05:32:49.732Z,40.00
2018-09-02T05:33:49.726Z,44.00
2018-09-02T05:34:49.715Z,48.00
2018-09-02T05:35:49.706Z,48.00
2018-09-02T05:36:49.747Z,56.00
2018-09-02T05:37:49.694Z,60.00
2018-09-02T05:38:49.684Z,64.00
2018-09-02T05:39:49.675Z,72.00
2018-09-02T05:40:49.666Z,68.00
2018-09-02T05:41:49.661Z,68.00
2018-09-02T05:42:49.653Z,68.00
2018-09-02T05:43:49.685Z,72.00
2018-09-02T05:44:49.638Z,68.00
2018-09-02T05:45:49.630Z,68.00
2018-09-02T05:46:49.627Z,72.00
2018-09-02T05:47:49.614Z,72.00
2018-09-02T05:48:49.612Z,76.00
2018-09-02T05:49:49.600Z,80.00
2018-09-02T05:50:49.592Z,80.00
2018-09-02T05:51:49.586Z,80.00
2018-09-02T05:52:49.580Z,80.00
2018-09-02T05:53:49.570Z,80.00
2018-09-02T05:54:49.561Z,88.00
2018-09-02T05:55:49.559Z,92.00
2018-09-02T05:56:49.552Z,88.00
2018-09-02T05:57:49.537Z,88.00
2018-09-02T05:58:49.532Z,88.00
2018-09-02T05:59:49.517Z,92.00
2018-09-02T06:00:49.516Z,92.00
2018-09-02T06:01:49.508Z,84.00
2018-09-02T06:02:49.576Z,80.00
2018-09-02T06:03:49.495Z,76.00
2018-09-02T06:04:49.487Z,72.00
2018-09-02T06:05:49.483Z,60.00
2018-09-02T06:06:49.474Z,60.00
2018-09-02T06:07:49.466Z,64.00
2018-09-02T06:08:49.457Z,72.00
2018-09-02T06:09:49.444Z,72.00
2018-09-02T06:10:49.442Z,72.00
2018-09-02T06:11:49.434Z,72.00
2018-09-02T06:12:49.425Z,80.00
2018-09-02T06:13:49.416Z,84.00
2018-09-02T06:14:49.410Z,84.00
2018-09-02T06:15:49.402Z,88.00
2018-09-02T06:16:49.395Z,92.00
2018-09-02T06:17:49.387Z,92.00
2018-09-02T06:18:49.378Z,96.00
2018-09-02T06:19:49.371Z,92.00
2018-09-02T06:20:49.369Z,88.00
2018-09-02T06:21:49.357Z,88.00
2018-09-02T06:22:49.348Z,84.00
2018-09-02T06:23:49.341Z,92.00
2018-09-02T06:24:49.334Z,100.00
2018-09-02T06:25:49.328Z,100.00
2018-09-02T06:26:49.318Z,104.00
2018-09-02T06:27:49.310Z,112.00
2018-09-02T06:28:49.304Z,116.00
2018-09-02T06:29:49.294Z,120.00
2018-09-02T06:30:49.287Z,112.00
2018-09-02T06:31:49.280Z,116.00
2018-09-02T06:32:49.294Z,112.00
2018-09-02T06:33:49.263Z,112.00
2018-09-02T06:34:49.261Z,124.00
2018-09-02T06:35:49.252Z,132.00
2018-09-02T06:36:49.244Z,136.00
2018-09-02T06:37:49.265Z,140.00
2018-09-02T06:38:49.230Z,152.00
2018-09-02T06:39:49.221Z,168.00
2018-09-02T06:40:49.213Z,184.00
2018-09-02T06:41:49.204Z,196.00
2018-09-02T06:42:49.197Z,216.00
2018-09-02T06:43:49.188Z,224.00
2018-09-02T06:44:49.182Z,228.00
2018-09-02T06:45:49.268Z,232.00
2018-09-02T06:46:49.165Z,236.00
2018-09-02T06:47:49.158Z,240.00
2018-09-02T06:48:49.151Z,244.00
2018-09-02T06:49:49.138Z,248.00
2018-09-02T06:50:49.134Z,256.00
2018-09-02T06:51:49.125Z,264.00
2018-09-02T06:52:49.134Z,252.00
2018-09-02T06:53:49.113Z,240.00
2018-09-02T06:54:49.105Z,224.00
2018-09-02T06:55:49.099Z,200.00
2018-09-02T06:56:49.091Z,192.00
2018-09-02T06:57:49.082Z,188.00
2018-09-02T06:58:49.077Z,192.00
2018-09-02T06:59:49.067Z,196.00
2018-09-02T07:00:49.061Z,208.00
2018-09-02T07:01:49.053Z,224.00
2018-09-02T07:02:49.041Z,240.00
2018-09-02T07:03:49.036Z,244.00
2018-09-02T07:04:49.037Z,224.00
2018-09-02T07:05:49.034Z,200.00
2018-09-02T07:06:49.045Z,176.00
2018-09-02T07:07:49.006Z,160.00
2018-09-02T07:08:49.000Z,140.00
2018-09-02T07:09:48.991Z,128.00
2018-09-02T07:10:48.985Z,120.00
2018-09-02T07:11:48.981Z,116.00
2018-09-02T07:12:48.970Z,116.00
2018-09-02T07:13:48.959Z,120.00
2018-09-02T07:14:48.954Z,124.00
2018-09-02T07:15:48.945Z,128.00
2018-09-02T07:16:48.946Z,124.00
2018-09-02T07:17:48.937Z,132.00
2018-09-02T07:18:48.928Z,136.00
2018-09-02T07:19:48.919Z,140.00
2018-09-02T07:20:48.947Z,140.00
2018-09-02T07:21:48.899Z,140.00
2018-09-02T07:22:48.892Z,144.00
2018-09-02T07:23:48.884Z,152.00
2018-09-02T07:24:48.874Z,160.00
2018-09-02T07:25:48.869Z,172.00
2018-09-02T07:26:48.865Z,188.00
2018-09-02T07:27:48.854Z,200.00
2018-09-02T07:28:48.848Z,208.00
2018-09-02T07:29:48.836Z,216.00
2018-09-02T07:30:48.831Z,224.00
2018-09-02T07:31:48.825Z,232.00
2018-09-02T07:32:48.816Z,244.00
2018-09-02T07:33:48.808Z,248.00
2018-09-02T07:34:48.801Z,252.00
2018-09-02T07:35:48.795Z,256.00
2018-09-02T07:36:48.788Z,256.00
2018-09-02T07:37:48.782Z,248.00
2018-09-02T07:38:48.770Z,244.00
2018-09-02T07:39:48.764Z,244.00
2018-09-02T07:40:48.755Z,236.00
2018-09-02T07:41:48.743Z,228.00
2018-09-02T07:42:48.738Z,236.00
2018-09-02T07:43:48.870Z,248.00
2018-09-02T07:44:48.731Z,260.00
2018-09-02T07:45:48.716Z,296.00
2018-09-02T07:46:48.709Z,320.00
2018-09-02T07:47:48.746Z,336.00
2018-09-02T07:48:48.746Z,348.00
2018-09-02T07:49:48.712Z,332.00
2018-09-02T07:50:48.697Z,332.00
2018-09-02T07:51:48.692Z,336.00
2018-09-02T07:52:48.664Z,328.00
2018-09-02T07:53:48.679Z,308.00
2018-09-02T07:54:48.649Z,288.00
2018-09-02T07:55:48.640Z,280.00
2018-09-02T07:56:48.634Z,292.00
2018-09-02T07:57:48.631Z,316.00
2018-09-02T07:58:48.618Z,348.00
2018-09-02T07:59:48.610Z,376.00
2018-09-02T08:00:48.603Z,416.00
2018-09-02T08:01:48.595Z,424.00
2018-09-02T08:02:48.708Z,428.00
2018-09-02T08:03:48.588Z,428.00
2018-09-02T08:04:48.576Z,444.00
2018-09-02T08:05:48.566Z,436.00
2018-09-02T08:06:48.554Z,436.00
2018-09-02T08:07:48.549Z,472.00
2018-09-02T08:08:48.544Z,628.00
2018-09-02T08:09:48.535Z,772.00
2018-09-02T08:10:48.528Z,796.00
2018-09-02T08:11:48.523Z,800.00
2018-09-02T08:12:48.580Z,852.00
2018-09-02T08:13:48.504Z,936.00
2018-09-02T08:14:48.497Z,1036.00
2018-09-02T08:15:48.490Z,1096.00
2018-09-02T08:16:48.487Z,1264.00
2018-09-02T08:17:48.477Z,1220.00
2018-09-02T08:18:48.471Z,1152.00
2018-09-02T08:19:48.500Z,1124.00
2018-09-02T08:20:48.460Z,1064.00
2018-09-02T08:21:48.448Z,992.00
2018-09-02T08:22:48.437Z,932.00
2018-09-02T08:23:48.430Z,952.00
2018-09-02T08:24:48.421Z,908.00
2018-09-02T08:25:48.417Z,912.00
2018-09-02T08:26:48.476Z,876.00
2018-09-02T08:27:48.400Z,908.00
2018-09-02T08:28:48.397Z,920.00
2018-09-02T08:29:48.394Z,864.00
2018-09-02T08:30:48.374Z,828.00
2018-09-02T08:31:48.369Z,1000.00
2018-09-02T08:32:48.392Z,960.00
2018-09-02T08:33:48.361Z,868.00
2018-09-02T08:34:48.349Z,796.00
2018-09-02T08:35:48.342Z,760.00
2018-09-02T08:36:48.339Z,744.00
2018-09-02T08:37:48.326Z,700.00
2018-09-02T08:38:48.361Z,692.00
2018-09-02T08:39:48.311Z,740.00
2018-09-02T08:40:48.310Z,728.00
2018-09-02T08:41:48.297Z,684.00
2018-09-02T08:42:48.291Z,708.00
2018-09-02T08:43:48.288Z,744.00
2018-09-02T08:44:48.275Z,776.00
2018-09-02T08:45:48.266Z,808.00
2018-09-02T08:46:48.263Z,780.00
2018-09-02T08:47:48.254Z,736.00
2018-09-02T08:48:48.247Z,828.00
2018-09-02T08:49:48.239Z,912.00
2018-09-02T08:50:48.230Z,868.00
2018-09-02T08:51:48.222Z,796.00
2018-09-02T08:52:48.219Z,724.00
2018-09-02T08:53:48.215Z,696.00
2018-09-02T08:54:48.205Z,704.00
2018-09-02T08:55:48.274Z,724.00
2018-09-02T08:56:48.184Z,736.00
2018-09-02T08:57:48.179Z,776.00
2018-09-02T08:58:48.171Z,744.00
2018-09-02T08:59:48.170Z,808.00
2018-09-02T09:00:48.160Z,848.00
2018-09-02T09:01:48.215Z,784.00
2018-09-02T09:02:48.143Z,780.00
2018-09-02T09:03:48.142Z,836.00
2018-09-02T09:04:48.128Z,896.00
2018-09-02T09:05:48.119Z,816.00
2018-09-02T09:06:48.112Z,704.00
2018-09-02T09:07:48.321Z,664.00
2018-09-02T09:08:48.300Z,676.00
2018-09-02T09:09:48.091Z,728.00
2018-09-02T09:10:48.086Z,680.00
2018-09-02T09:11:48.077Z,612.00
2018-09-02T09:12:48.070Z,612.00
2018-09-02T09:13:48.059Z,592.00
2018-09-02T09:14:48.054Z,600.00
2018-09-02T09:15:48.047Z,612.00
2018-09-02T09:16:48.130Z,568.00
2018-09-02T09:17:48.034Z,484.00
2018-09-02T09:18:48.035Z,436.00
2018-09-02T09:19:48.020Z,388.00
2018-09-02T09:20:48.010Z,368.00
2018-09-02T09:21:48.002Z,368.00
2018-09-02T09:22:48.134Z,400.00
2018-09-02T09:23:47.988Z,436.00
2018-09-02T09:24:47.978Z,420.00
2018-09-02T09:25:47.972Z,400.00
2018-09-02T09:26:47.964Z,392.00
2018-09-02T09:27:47.957Z,380.00
2018-09-02T09:28:47.951Z,356.00
2018-09-02T09:29:47.942Z,348.00
2018-09-02T09:30:47.937Z,352.00
2018-09-02T09:31:47.930Z,380.00
2018-09-02T09:32:47.921Z,408.00
2018-09-02T09:33:47.914Z,416.00
2018-09-02T09:34:47.907Z,412.00
2018-09-02T09:35:47.903Z,412.00
2018-09-02T09:36:47.892Z,428.00
2018-09-02T09:37:47.885Z,444.00
2018-09-02T09:38:47.888Z,460.00
2018-09-02T09:39:47.871Z,464.00
2018-09-02T09:40:47.865Z,448.00
2018-09-02T09:41:47.856Z,392.00
2018-09-02T09:42:47.847Z,352.00
2018-09-02T09:43:47.841Z,336.00
2018-09-02T09:44:47.836Z,316.00
2018-09-02T09:45:47.882Z,288.00
2018-09-02T09:46:47.826Z,264.00
2018-09-02T09:47:47.810Z,240.00
2018-09-02T09:48:47.804Z,224.00
2018-09-02T09:49:47.793Z,220.00
2018-09-02T09:50:47.786Z,216.00
2018-09-02T09:51:47.785Z,200.00
2018-09-02T09:52:47.775Z,196.00
2018-09-02T09:53:47.766Z,184.00
2018-09-02T09:54:47.759Z,172.00
2018-09-02T09:55:47.752Z,176.00
2018-09-02T09:56:47.746Z,184.00
2018-09-02T09:57:47.737Z,188.00
2018-09-02T09:58:47.730Z,188.00
2018-09-02T09:59:47.728Z,192.00
2018-09-02T10:00:47.716Z,204.00
2018-09-02T10:01:47.709Z,204.00
2018-09-02T10:02:47.702Z,212.00
2018-09-02T10:03:47.732Z,212.00
2018-09-02T10:04:47.688Z,208.00
2018-09-02T10:05:47.680Z,220.00
2018-09-02T10:06:47.674Z,248.00
2018-09-02T10:07:47.665Z,260.00
2018-09-02T10:08:47.662Z,260.00
2018-09-02T10:09:47.668Z,280.00
2018-09-02T10:10:47.640Z,304.00
2018-09-02T10:11:47.702Z,312.00
2018-09-02T10:12:47.630Z,308.00
2018-09-02T10:13:47.623Z,288.00
2018-09-02T10:14:47.608Z,276.00
2018-09-02T10:15:47.604Z,272.00
2018-09-02T10:16:47.596Z,264.00
2018-09-02T10:17:47.593Z,268.00
2018-09-02T10:18:47.581Z,264.00
2018-09-02T10:19:47.572Z,268.00
2018-09-02T10:20:47.566Z,276.00
2018-09-02T10:21:47.568Z,276.00
2018-09-02T10:22:47.552Z,280.00
2018-09-02T10:23:47.547Z,280.00
2018-09-02T10:24:47.537Z,280.00
2018-09-02T10:25:47.529Z,284.00
2018-09-02T10:26:47.523Z,292.00
2018-09-02T10:27:47.513Z,300.00
2018-09-02T10:28:47.508Z,304.00
2018-09-02T10:29:47.499Z,304.00
2018-09-02T10:30:47.493Z,312.00
2018-09-02T10:31:47.486Z,340.00
2018-09-02T10:32:47.477Z,360.00
2018-09-02T10:33:47.471Z,372.00
2018-09-02T10:34:47.470Z,372.00
2018-09-02T10:35:47.457Z,372.00
2018-09-02T10:36:47.448Z,392.00
2018-09-02T10:37:47.441Z,404.00
2018-09-02T10:38:47.433Z,400.00
2018-09-02T10:39:47.432Z,384.00
2018-09-02T10:40:47.418Z,384.00
2018-09-02T10:41:47.411Z,420.00
2018-09-02T10:42:47.404Z,416.00
2018-09-02T10:43:47.399Z,368.00
2018-09-02T10:44:47.391Z,336.00
2018-09-02T10:45:47.381Z,316.00
2018-09-02T10:46:47.377Z,296.00
2018-09-02T10:47:47.373Z,280.00
2018-09-02T10:48:47.361Z,280.00
2018-09-02T10:49:47.422Z,280.00
2018-09-02T10:50:47.344Z,280.00
2018-09-02T10:51:47.351Z,288.00
2018-09-02T10:52:47.330Z,280.00
2018-09-02T10:53:47.322Z,272.00
2018-09-02T10:54:47.315Z,272.00
2018-09-02T10:55:47.308Z,272.00
2018-09-02T10:56:47.301Z,264.00
2018-09-02T10:57:47.292Z,272.00
2018-09-02T10:58:47.283Z,268.00
2018-09-02T10:59:47.418Z,260.00
2018-09-02T11:00:47.276Z,264.00
2018-09-02T11:01:47.266Z,260.00
2018-09-02T11:02:47.256Z,268.00
2018-09-02T11:03:47.247Z,284.00
2018-09-02T11:04:47.241Z,296.00
2018-09-02T11:05:47.233Z,300.00
2018-09-02T11:06:47.228Z,312.00
2018-09-02T11:07:47.234Z,324.00
2018-09-02T11:08:47.304Z,320.00
2018-09-02T11:09:47.204Z,300.00
2018-09-02T11:10:47.196Z,272.00
2018-09-02T11:11:47.190Z,256.00
2018-09-02T11:12:47.184Z,252.00
2018-09-02T11:13:47.392Z,244.00
2018-09-02T11:14:47.167Z,232.00
2018-09-02T11:15:47.164Z,236.00
2018-09-02T11:16:47.152Z,236.00
2018-09-02T11:17:47.143Z,224.00
2018-09-02T11:18:47.140Z,212.00
2018-09-02T11:19:47.130Z,204.00
2018-09-02T11:20:47.126Z,200.00
2018-09-02T11:21:47.115Z,196.00
2018-09-02T11:22:47.105Z,196.00
2018-09-02T11:23:47.099Z,188.00
2018-09-02T11:24:47.101Z,172.00
2018-09-02T11:25:47.083Z,176.00
2018-09-02T11:26:47.078Z,176.00
2018-09-02T11:27:47.070Z,188.00
2018-09-02T11:28:47.066Z,192.00
2018-09-02T11:29:47.056Z,196.00
2018-09-02T11:30:47.049Z,192.00
2018-09-02T11:31:47.042Z,192.00
2018-09-02T11:32:47.034Z,188.00
2018-09-02T11:33:47.025Z,180.00
2018-09-02T11:34:47.019Z,184.00
2018-09-02T11:35:47.011Z,192.00
2018-09-02T11:36:47.004Z,204.00
2018-09-02T11:37:47.009Z,212.00
2018-09-02T11:38:46.987Z,220.00
2018-09-02T11:39:46.980Z,224.00
2018-09-02T11:40:46.974Z,232.00
2018-09-02T11:41:46.964Z,240.00
2018-09-02T11:42:46.957Z,248.00
2018-09-02T11:43:46.953Z,272.00
2018-09-02T11:44:46.944Z,292.00
2018-09-02T11:45:46.937Z,304.00
2018-09-02T11:46:46.994Z,316.00
2018-09-02T11:47:46.921Z,328.00
2018-09-02T11:48:46.913Z,368.00
2018-09-02T11:49:46.904Z,400.00
2018-09-02T11:50:46.905Z,416.00
2018-09-02T11:51:46.892Z,444.00
2018-09-02T11:52:46.885Z,500.00
2018-09-02T11:53:46.880Z,596.00
2018-09-02T11:54:46.868Z,708.00
2018-09-02T11:55:46.863Z,784.00
2018-09-02T11:56:46.866Z,772.00
2018-09-02T11:57:46.917Z,700.00
2018-09-02T11:58:46.839Z,596.00
2018-09-02T11:59:46.837Z,520.00
2018-09-02T12:00:46.822Z,492.00
2018-09-02T12:01:46.816Z,440.00
2018-09-02T12:02:46.808Z,392.00
2018-09-02T12:03:46.823Z,380.00
2018-09-02T12:04:46.865Z,356.00
2018-09-02T12:05:46.787Z,324.00
2018-09-02T12:06:46.783Z,304.00
2018-09-02T12:07:46.778Z,288.00
2018-09-02T12:08:46.766Z,272.00
2018-09-02T12:09:46.766Z,268.00
2018-09-02T12:10:46.752Z,268.00
2018-09-02T12:11:46.766Z,284.00
2018-09-02T12:12:46.737Z,288.00
2018-09-02T12:13:46.726Z,296.00
2018-09-02T12:14:46.719Z,304.00
2018-09-02T12:15:46.712Z,316.00
2018-09-02T12:16:46.710Z,304.00
2018-09-02T12:17:46.703Z,280.00
2018-09-02T12:18:46.691Z,264.00
2018-09-02T12:19:46.693Z,256.00
2018-09-02T12:20:46.677Z,256.00
2018-09-02T12:21:46.670Z,260.00
2018-09-02T12:22:46.661Z,260.00
2018-09-02T12:23:46.652Z,268.00
2018-09-02T12:24:46.649Z,280.00
2018-09-02T12:25:46.642Z,288.00
2018-09-02T12:26:46.633Z,288.00
2018-09-02T12:27:46.623Z,292.00
2018-09-02T12:28:46.619Z,284.00
2018-09-02T12:29:46.607Z,288.00
2018-09-02T12:30:46.598Z,284.00
2018-09-02T12:31:46.595Z,292.00
2018-09-02T12:32:46.590Z,308.00
2018-09-02T12:33:46.579Z,324.00
2018-09-02T12:34:46.572Z,340.00
2018-09-02T12:35:46.566Z,348.00
2018-09-02T12:36:46.558Z,360.00
2018-09-02T12:37:46.547Z,376.00
2018-09-02T12:38:46.542Z,392.00
2018-09-02T12:39:46.535Z,404.00
2018-09-02T12:40:46.531Z,440.00
2018-09-02T12:41:46.520Z,448.00
2018-09-02T12:42:46.513Z,436.00
2018-09-02T12:43:46.505Z,420.00
2018-09-02T12:44:46.498Z,396.00
2018-09-02T12:45:46.495Z,372.00
2018-09-02T12:46:46.482Z,364.00
2018-09-02T12:47:46.522Z,372.00
2018-09-02T12:48:46.470Z,376.00
2018-09-02T12:49:46.462Z,360.00